sensor_id;sensor_type;location;lat;lon;timestamp;P1;durP1;ratioP1;P2;durP2;ratioP2
24859;SDS011;12936;52.006;4.350;2023-05-18T00:01:34;7.40;;;1.60;;
24859;SDS011;12936;52.006;4.350;2023-05-18T00:04:06;5.43;;;1.80;;
24859;SDS011;12936;52.006;4.350;2023-05-18T00:06:35;14.33;;;2.33;;
24859;SDS011;12936;52.006;4.350;2023-05-18T00:09:03;6.83;;;1.80;;
24859;SDS011;12936;52.006;4.350;2023-05-18T00:11:33;6.47;;;1.90;;
24859;SDS011;12936;52.006;4.350;2023-05-18T00:14:04;7.10;;;2.10;;
24859;SDS011;12936;52.006;4.350;2023-05-18T00:16:33;7.67;;;1.80;;
24859;SDS011;12936;52.006;4.350;2023-05-18T00:19:01;9.67;;;1.77;;
24859;SDS011;12936;52.006;4.350;2023-05-18T00:21:30;7.30;;;1.80;;
24859;SDS011;12936;52.006;4.350;2023-05-18T00:23:58;7.37;;;2.20;;
24859;SDS011;12936;52.006;4.350;2023-05-18T00:26:27;8.67;;;1.73;;
24859;SDS011;12936;52.006;4.350;2023-05-18T00:28:57;3.33;;;1.60;;
24859;SDS011;12936;52.006;4.350;2023-05-18T00:31:25;10.53;;;1.90;;
24859;SDS011;12936;52.006;4.350;2023-05-18T00:33:53;7.17;;;1.93;;
24859;SDS011;12936;52.006;4.350;2023-05-18T00:36:21;12.03;;;2.00;;
24859;SDS011;12936;52.006;4.350;2023-05-18T00:38:49;5.03;;;1.70;;
24859;SDS011;12936;52.006;4.350;2023-05-18T00:41:17;6.90;;;1.80;;
24859;SDS011;12936;52.006;4.350;2023-05-18T00:43:45;6.30;;;1.90;;
24859;SDS011;12936;52.006;4.350;2023-05-18T00:46:14;8.67;;;2.27;;
24859;SDS011;12936;52.006;4.350;2023-05-18T00:48:42;7.87;;;2.10;;
24859;SDS011;12936;52.006;4.350;2023-05-18T00:51:11;5.90;;;1.97;;
24859;SDS011;12936;52.006;4.350;2023-05-18T00:53:39;4.87;;;1.87;;
24859;SDS011;12936;52.006;4.350;2023-05-18T00:56:09;10.53;;;2.17;;
24859;SDS011;12936;52.006;4.350;2023-05-18T00:58:38;7.40;;;1.90;;
24859;SDS011;12936;52.006;4.350;2023-05-18T01:01:07;8.87;;;1.90;;
24859;SDS011;12936;52.006;4.350;2023-05-18T01:03:37;5.67;;;2.37;;
24859;SDS011;12936;52.006;4.350;2023-05-18T01:06:07;6.27;;;2.50;;
24859;SDS011;12936;52.006;4.350;2023-05-18T01:08:38;8.63;;;1.83;;
24859;SDS011;12936;52.006;4.350;2023-05-18T01:11:20;8.37;;;2.17;;
24859;SDS011;12936;52.006;4.350;2023-05-18T01:14:05;6.60;;;1.90;;
24859;SDS011;12936;52.006;4.350;2023-05-18T01:16:42;6.47;;;2.10;;
24859;SDS011;12936;52.006;4.350;2023-05-18T01:19:22;7.40;;;2.50;;
24859;SDS011;12936;52.006;4.350;2023-05-18T01:22:12;8.27;;;2.40;;
24859;SDS011;12936;52.006;4.350;2023-05-18T01:25:02;8.20;;;2.20;;
24859;SDS011;12936;52.006;4.350;2023-05-18T01:27:41;11.30;;;2.60;;
24859;SDS011;12936;52.006;4.350;2023-05-18T01:30:14;6.67;;;1.97;;
24859;SDS011;12936;52.006;4.350;2023-05-18T01:32:44;11.23;;;2.40;;
24859;SDS011;12936;52.006;4.350;2023-05-18T01:35:13;8.97;;;2.67;;
24859;SDS011;12936;52.006;4.350;2023-05-18T01:37:41;5.67;;;1.80;;
24859;SDS011;12936;52.006;4.350;2023-05-18T01:40:09;5.67;;;2.03;;
24859;SDS011;12936;52.006;4.350;2023-05-18T01:42:38;5.20;;;2.03;;
24859;SDS011;12936;52.006;4.350;2023-05-18T01:45:14;8.30;;;1.93;;
24859;SDS011;12936;52.006;4.350;2023-05-18T01:47:47;6.83;;;2.03;;
24859;SDS011;12936;52.006;4.350;2023-05-18T01:50:21;6.83;;;2.20;;
24859;SDS011;12936;52.006;4.350;2023-05-18T01:52:57;8.77;;;2.40;;
24859;SDS011;12936;52.006;4.350;2023-05-18T01:55:29;8.90;;;2.50;;
24859;SDS011;12936;52.006;4.350;2023-05-18T01:57:59;9.27;;;2.23;;
24859;SDS011;12936;52.006;4.350;2023-05-18T02:00:31;7.10;;;2.27;;
24859;SDS011;12936;52.006;4.350;2023-05-18T02:02:59;7.90;;;2.37;;
24859;SDS011;12936;52.006;4.350;2023-05-18T02:05:27;5.93;;;1.80;;
24859;SDS011;12936;52.006;4.350;2023-05-18T02:07:56;7.87;;;2.20;;
24859;SDS011;12936;52.006;4.350;2023-05-18T02:10:24;8.37;;;2.57;;
24859;SDS011;12936;52.006;4.350;2023-05-18T02:12:52;9.07;;;2.23;;
24859;SDS011;12936;52.006;4.350;2023-05-18T02:15:21;8.47;;;2.40;;
24859;SDS011;12936;52.006;4.350;2023-05-18T02:17:49;9.20;;;2.10;;
24859;SDS011;12936;52.006;4.350;2023-05-18T02:20:17;7.67;;;1.87;;
24859;SDS011;12936;52.006;4.350;2023-05-18T02:22:45;12.13;;;2.03;;
24859;SDS011;12936;52.006;4.350;2023-05-18T02:25:13;4.60;;;1.90;;
24859;SDS011;12936;52.006;4.350;2023-05-18T02:27:42;4.57;;;2.40;;
24859;SDS011;12936;52.006;4.350;2023-05-18T02:30:11;6.00;;;1.83;;
24859;SDS011;12936;52.006;4.350;2023-05-18T02:32:42;7.83;;;2.10;;
24859;SDS011;12936;52.006;4.350;2023-05-18T02:35:12;4.80;;;1.90;;
24859;SDS011;12936;52.006;4.350;2023-05-18T02:37:40;7.30;;;2.20;;
24859;SDS011;12936;52.006;4.350;2023-05-18T02:40:10;7.67;;;2.50;;
24859;SDS011;12936;52.006;4.350;2023-05-18T02:42:39;6.73;;;1.80;;
24859;SDS011;12936;52.006;4.350;2023-05-18T02:45:08;12.17;;;1.80;;
24859;SDS011;12936;52.006;4.350;2023-05-18T02:47:37;6.67;;;2.10;;
24859;SDS011;12936;52.006;4.350;2023-05-18T02:50:07;5.70;;;2.33;;
24859;SDS011;12936;52.006;4.350;2023-05-18T02:52:35;7.47;;;2.20;;
24859;SDS011;12936;52.006;4.350;2023-05-18T02:55:04;7.00;;;2.00;;
24859;SDS011;12936;52.006;4.350;2023-05-18T02:57:32;7.40;;;2.40;;
24859;SDS011;12936;52.006;4.350;2023-05-18T03:00:00;9.83;;;1.83;;
24859;SDS011;12936;52.006;4.350;2023-05-18T03:02:35;6.07;;;1.80;;
24859;SDS011;12936;52.006;4.350;2023-05-18T03:05:04;11.30;;;2.60;;
24859;SDS011;12936;52.006;4.350;2023-05-18T03:07:35;6.07;;;1.90;;
24859;SDS011;12936;52.006;4.350;2023-05-18T03:10:03;5.47;;;2.00;;
24859;SDS011;12936;52.006;4.350;2023-05-18T03:12:32;5.90;;;1.90;;
24859;SDS011;12936;52.006;4.350;2023-05-18T03:15:00;7.63;;;2.20;;
24859;SDS011;12936;52.006;4.350;2023-05-18T03:17:29;7.63;;;1.87;;
24859;SDS011;12936;52.006;4.350;2023-05-18T03:19:57;5.53;;;1.93;;
24859;SDS011;12936;52.006;4.350;2023-05-18T03:22:27;6.63;;;2.00;;
24859;SDS011;12936;52.006;4.350;2023-05-18T03:24:58;8.53;;;1.90;;
24859;SDS011;12936;52.006;4.350;2023-05-18T03:27:28;6.33;;;2.10;;
24859;SDS011;12936;52.006;4.350;2023-05-18T03:29:59;6.00;;;1.97;;
24859;SDS011;12936;52.006;4.350;2023-05-18T03:32:27;8.10;;;2.00;;
24859;SDS011;12936;52.006;4.350;2023-05-18T03:34:57;7.97;;;2.40;;
24859;SDS011;12936;52.006;4.350;2023-05-18T03:37:27;4.97;;;1.60;;
24859;SDS011;12936;52.006;4.350;2023-05-18T03:39:57;5.90;;;2.10;;
24859;SDS011;12936;52.006;4.350;2023-05-18T03:42:26;6.77;;;1.90;;
24859;SDS011;12936;52.006;4.350;2023-05-18T03:44:54;5.63;;;2.00;;
24859;SDS011;12936;52.006;4.350;2023-05-18T03:47:22;4.40;;;1.67;;
24859;SDS011;12936;52.006;4.350;2023-05-18T03:49:50;7.13;;;2.00;;
24859;SDS011;12936;52.006;4.350;2023-05-18T03:52:18;5.60;;;1.97;;
24859;SDS011;12936;52.006;4.350;2023-05-18T03:54:49;13.13;;;2.20;;
24859;SDS011;12936;52.006;4.350;2023-05-18T03:57:17;8.10;;;2.00;;
24859;SDS011;12936;52.006;4.350;2023-05-18T03:59:45;8.07;;;2.13;;
24859;SDS011;12936;52.006;4.350;2023-05-18T04:02:13;12.47;;;1.97;;
24859;SDS011;12936;52.006;4.350;2023-05-18T04:04:42;3.57;;;1.60;;
24859;SDS011;12936;52.006;4.350;2023-05-18T04:07:11;10.13;;;2.00;;
24859;SDS011;12936;52.006;4.350;2023-05-18T04:09:42;7.40;;;1.80;;
24859;SDS011;12936;52.006;4.350;2023-05-18T04:12:12;4.57;;;1.53;;
24859;SDS011;12936;52.006;4.350;2023-05-18T04:14:40;7.13;;;2.37;;
24859;SDS011;12936;52.006;4.350;2023-05-18T04:17:15;7.33;;;2.13;;
24859;SDS011;12936;52.006;4.350;2023-05-18T04:19:43;4.97;;;1.57;;
24859;SDS011;12936;52.006;4.350;2023-05-18T04:22:11;7.07;;;1.77;;
24859;SDS011;12936;52.006;4.350;2023-05-18T04:24:39;5.53;;;1.77;;
24859;SDS011;12936;52.006;4.350;2023-05-18T04:27:07;5.60;;;2.30;;
24859;SDS011;12936;52.006;4.350;2023-05-18T04:29:38;5.97;;;1.80;;
24859;SDS011;12936;52.006;4.350;2023-05-18T04:32:09;9.57;;;1.90;;
24859;SDS011;12936;52.006;4.350;2023-05-18T04:34:37;6.50;;;1.80;;
24859;SDS011;12936;52.006;4.350;2023-05-18T04:37:06;5.23;;;1.90;;
24859;SDS011;12936;52.006;4.350;2023-05-18T04:39:36;7.97;;;1.80;;
24859;SDS011;12936;52.006;4.350;2023-05-18T04:42:07;5.93;;;1.77;;
24859;SDS011;12936;52.006;4.350;2023-05-18T04:44:35;5.40;;;1.80;;
24859;SDS011;12936;52.006;4.350;2023-05-18T04:47:05;2.77;;;1.70;;
24859;SDS011;12936;52.006;4.350;2023-05-18T04:49:34;4.97;;;1.70;;
24859;SDS011;12936;52.006;4.350;2023-05-18T04:52:02;5.00;;;2.00;;
24859;SDS011;12936;52.006;4.350;2023-05-18T04:54:33;9.87;;;2.00;;
24859;SDS011;12936;52.006;4.350;2023-05-18T04:57:01;4.50;;;1.93;;
24859;SDS011;12936;52.006;4.350;2023-05-18T04:59:29;7.20;;;2.20;;
24859;SDS011;12936;52.006;4.350;2023-05-18T05:02:02;8.27;;;1.77;;
24859;SDS011;12936;52.006;4.350;2023-05-18T05:04:31;11.40;;;2.13;;
24859;SDS011;12936;52.006;4.350;2023-05-18T05:06:59;4.80;;;1.73;;
24859;SDS011;12936;52.006;4.350;2023-05-18T05:09:27;8.67;;;1.90;;
24859;SDS011;12936;52.006;4.350;2023-05-18T05:11:55;4.07;;;1.80;;
24859;SDS011;12936;52.006;4.350;2023-05-18T05:14:23;5.03;;;1.90;;
24859;SDS011;12936;52.006;4.350;2023-05-18T05:16:51;6.30;;;1.77;;
24859;SDS011;12936;52.006;4.350;2023-05-18T05:19:20;10.50;;;2.03;;
24859;SDS011;12936;52.006;4.350;2023-05-18T05:21:49;6.23;;;1.90;;
24859;SDS011;12936;52.006;4.350;2023-05-18T05:24:17;8.33;;;1.93;;
24859;SDS011;12936;52.006;4.350;2023-05-18T05:26:46;5.23;;;1.90;;
24859;SDS011;12936;52.006;4.350;2023-05-18T05:29:14;11.80;;;2.07;;
24859;SDS011;12936;52.006;4.350;2023-05-18T05:31:42;10.40;;;1.90;;
24859;SDS011;12936;52.006;4.350;2023-05-18T05:34:10;6.90;;;1.97;;
24859;SDS011;12936;52.006;4.350;2023-05-18T05:36:39;12.30;;;1.87;;
24859;SDS011;12936;52.006;4.350;2023-05-18T05:39:08;7.40;;;1.63;;
24859;SDS011;12936;52.006;4.350;2023-05-18T05:41:37;10.77;;;2.10;;
24859;SDS011;12936;52.006;4.350;2023-05-18T05:44:06;8.70;;;2.23;;
24859;SDS011;12936;52.006;4.350;2023-05-18T05:46:34;4.57;;;1.77;;
24859;SDS011;12936;52.006;4.350;2023-05-18T05:49:02;6.67;;;2.00;;
24859;SDS011;12936;52.006;4.350;2023-05-18T05:51:30;8.10;;;1.80;;
24859;SDS011;12936;52.006;4.350;2023-05-18T05:53:58;5.70;;;1.30;;
24859;SDS011;12936;52.006;4.350;2023-05-18T05:56:30;8.67;;;2.10;;
24859;SDS011;12936;52.006;4.350;2023-05-18T05:58:58;6.53;;;1.70;;
24859;SDS011;12936;52.006;4.350;2023-05-18T06:01:27;11.50;;;2.00;;
24859;SDS011;12936;52.006;4.350;2023-05-18T06:03:55;9.60;;;1.97;;
24859;SDS011;12936;52.006;4.350;2023-05-18T06:06:23;8.10;;;1.80;;
24859;SDS011;12936;52.006;4.350;2023-05-18T06:08:53;9.80;;;2.20;;
24859;SDS011;12936;52.006;4.350;2023-05-18T06:11:21;11.30;;;2.20;;
24859;SDS011;12936;52.006;4.350;2023-05-18T06:13:50;8.70;;;1.80;;
24859;SDS011;12936;52.006;4.350;2023-05-18T06:16:18;8.97;;;1.87;;
24859;SDS011;12936;52.006;4.350;2023-05-18T06:18:46;9.40;;;1.80;;
24859;SDS011;12936;52.006;4.350;2023-05-18T06:21:15;9.47;;;1.97;;
24859;SDS011;12936;52.006;4.350;2023-05-18T06:23:43;6.30;;;1.83;;
24859;SDS011;12936;52.006;4.350;2023-05-18T06:26:11;5.10;;;1.63;;
24859;SDS011;12936;52.006;4.350;2023-05-18T06:28:39;6.20;;;1.77;;
24859;SDS011;12936;52.006;4.350;2023-05-18T06:31:09;8.03;;;1.90;;
24859;SDS011;12936;52.006;4.350;2023-05-18T06:33:38;6.07;;;1.90;;
24859;SDS011;12936;52.006;4.350;2023-05-18T06:36:06;7.53;;;2.10;;
24859;SDS011;12936;52.006;4.350;2023-05-18T06:38:35;8.30;;;1.67;;
24859;SDS011;12936;52.006;4.350;2023-05-18T06:41:03;6.90;;;1.83;;
24859;SDS011;12936;52.006;4.350;2023-05-18T06:43:31;8.20;;;1.83;;
24859;SDS011;12936;52.006;4.350;2023-05-18T06:45:59;8.97;;;1.90;;
24859;SDS011;12936;52.006;4.350;2023-05-18T06:48:29;11.63;;;1.70;;
24859;SDS011;12936;52.006;4.350;2023-05-18T06:50:57;6.60;;;2.17;;
24859;SDS011;12936;52.006;4.350;2023-05-18T06:53:25;7.60;;;2.10;;
24859;SDS011;12936;52.006;4.350;2023-05-18T06:55:53;6.67;;;1.80;;
24859;SDS011;12936;52.006;4.350;2023-05-18T06:58:22;6.07;;;1.80;;
24859;SDS011;12936;52.006;4.350;2023-05-18T07:00:50;10.67;;;1.80;;
24859;SDS011;12936;52.006;4.350;2023-05-18T07:03:19;6.47;;;1.83;;
24859;SDS011;12936;52.006;4.350;2023-05-18T07:05:48;6.37;;;1.60;;
24859;SDS011;12936;52.006;4.350;2023-05-18T07:08:17;8.03;;;1.83;;
24859;SDS011;12936;52.006;4.350;2023-05-18T07:10:45;9.07;;;2.00;;
24859;SDS011;12936;52.006;4.350;2023-05-18T07:13:13;8.43;;;2.10;;
24859;SDS011;12936;52.006;4.350;2023-05-18T07:15:41;6.00;;;2.17;;
24859;SDS011;12936;52.006;4.350;2023-05-18T07:18:09;6.53;;;1.90;;
24859;SDS011;12936;52.006;4.350;2023-05-18T07:20:37;6.90;;;1.90;;
24859;SDS011;12936;52.006;4.350;2023-05-18T07:23:07;11.83;;;2.40;;
24859;SDS011;12936;52.006;4.350;2023-05-18T07:25:35;7.83;;;1.70;;
24859;SDS011;12936;52.006;4.350;2023-05-18T07:28:03;5.37;;;1.97;;
24859;SDS011;12936;52.006;4.350;2023-05-18T07:30:31;8.07;;;2.00;;
24859;SDS011;12936;52.006;4.350;2023-05-18T07:32:59;9.17;;;2.23;;
24859;SDS011;12936;52.006;4.350;2023-05-18T07:35:28;6.53;;;2.07;;
24859;SDS011;12936;52.006;4.350;2023-05-18T07:37:57;8.43;;;1.80;;
24859;SDS011;12936;52.006;4.350;2023-05-18T07:40:26;10.83;;;2.07;;
24859;SDS011;12936;52.006;4.350;2023-05-18T07:42:54;11.60;;;2.40;;
24859;SDS011;12936;52.006;4.350;2023-05-18T07:45:22;14.97;;;2.27;;
24859;SDS011;12936;52.006;4.350;2023-05-18T07:47:50;6.63;;;2.00;;
24859;SDS011;12936;52.006;4.350;2023-05-18T07:50:19;9.13;;;2.03;;
24859;SDS011;12936;52.006;4.350;2023-05-18T07:52:47;12.47;;;3.00;;
24859;SDS011;12936;52.006;4.350;2023-05-18T07:55:15;10.60;;;2.37;;
24859;SDS011;12936;52.006;4.350;2023-05-18T07:57:45;8.27;;;1.63;;
24859;SDS011;12936;52.006;4.350;2023-05-18T08:00:13;5.33;;;1.97;;
24859;SDS011;12936;52.006;4.350;2023-05-18T08:02:42;7.27;;;1.60;;
24859;SDS011;12936;52.006;4.350;2023-05-18T08:05:11;10.10;;;2.53;;
24859;SDS011;12936;52.006;4.350;2023-05-18T08:07:39;8.97;;;1.77;;
24859;SDS011;12936;52.006;4.350;2023-05-18T08:10:08;11.43;;;2.00;;
24859;SDS011;12936;52.006;4.350;2023-05-18T08:12:36;10.53;;;2.03;;
24859;SDS011;12936;52.006;4.350;2023-05-18T08:15:07;8.90;;;2.13;;
24859;SDS011;12936;52.006;4.350;2023-05-18T08:17:35;14.20;;;1.90;;
24859;SDS011;12936;52.006;4.350;2023-05-18T08:20:04;6.97;;;2.10;;
24859;SDS011;12936;52.006;4.350;2023-05-18T08:22:33;7.03;;;1.80;;
24859;SDS011;12936;52.006;4.350;2023-05-18T08:25:01;10.10;;;2.30;;
24859;SDS011;12936;52.006;4.350;2023-05-18T08:27:29;7.60;;;1.93;;
24859;SDS011;12936;52.006;4.350;2023-05-18T08:29:57;14.60;;;2.53;;
24859;SDS011;12936;52.006;4.350;2023-05-18T08:32:27;12.27;;;2.00;;
24859;SDS011;12936;52.006;4.350;2023-05-18T08:34:55;6.60;;;2.07;;
24859;SDS011;12936;52.006;4.350;2023-05-18T08:37:23;5.43;;;2.00;;
24859;SDS011;12936;52.006;4.350;2023-05-18T08:39:54;9.00;;;2.17;;
24859;SDS011;12936;52.006;4.350;2023-05-18T08:42:27;6.90;;;1.67;;
24859;SDS011;12936;52.006;4.350;2023-05-18T08:45:17;4.80;;;2.00;;
24859;SDS011;12936;52.006;4.350;2023-05-18T08:47:49;6.77;;;2.10;;
24859;SDS011;12936;52.006;4.350;2023-05-18T08:50:21;8.30;;;1.77;;
24859;SDS011;12936;52.006;4.350;2023-05-18T08:52:53;12.00;;;2.13;;
24859;SDS011;12936;52.006;4.350;2023-05-18T08:55:22;8.07;;;1.87;;
24859;SDS011;12936;52.006;4.350;2023-05-18T08:57:51;10.17;;;1.90;;
24859;SDS011;12936;52.006;4.350;2023-05-18T09:00:25;7.60;;;2.10;;
24859;SDS011;12936;52.006;4.350;2023-05-18T09:02:56;7.57;;;1.73;;
24859;SDS011;12936;52.006;4.350;2023-05-18T09:05:25;8.50;;;2.23;;
24859;SDS011;12936;52.006;4.350;2023-05-18T09:07:54;7.33;;;1.80;;
24859;SDS011;12936;52.006;4.350;2023-05-18T09:10:23;8.83;;;2.00;;
24859;SDS011;12936;52.006;4.350;2023-05-18T09:12:51;7.17;;;2.20;;
24859;SDS011;12936;52.006;4.350;2023-05-18T09:15:22;10.33;;;2.20;;
24859;SDS011;12936;52.006;4.350;2023-05-18T09:17:51;8.83;;;2.20;;
24859;SDS011;12936;52.006;4.350;2023-05-18T09:20:21;9.60;;;3.03;;
24859;SDS011;12936;52.006;4.350;2023-05-18T09:22:50;10.23;;;2.13;;
24859;SDS011;12936;52.006;4.350;2023-05-18T09:25:19;7.57;;;1.83;;
24859;SDS011;12936;52.006;4.350;2023-05-18T09:27:47;9.27;;;2.33;;
24859;SDS011;12936;52.006;4.350;2023-05-18T09:30:18;10.90;;;2.30;;
24859;SDS011;12936;52.006;4.350;2023-05-18T09:32:46;9.87;;;2.33;;
24859;SDS011;12936;52.006;4.350;2023-05-18T09:35:14;6.43;;;2.20;;
24859;SDS011;12936;52.006;4.350;2023-05-18T09:37:44;10.90;;;2.23;;
24859;SDS011;12936;52.006;4.350;2023-05-18T09:40:15;8.97;;;2.30;;
24859;SDS011;12936;52.006;4.350;2023-05-18T09:42:44;11.03;;;2.10;;
24859;SDS011;12936;52.006;4.350;2023-05-18T09:45:15;13.73;;;2.60;;
24859;SDS011;12936;52.006;4.350;2023-05-18T09:47:44;7.67;;;1.93;;
24859;SDS011;12936;52.006;4.350;2023-05-18T09:50:12;6.60;;;2.13;;
24859;SDS011;12936;52.006;4.350;2023-05-18T09:52:41;7.70;;;2.13;;
24859;SDS011;12936;52.006;4.350;2023-05-18T09:55:11;10.23;;;1.93;;
24859;SDS011;12936;52.006;4.350;2023-05-18T09:57:39;7.17;;;2.00;;
24859;SDS011;12936;52.006;4.350;2023-05-18T10:00:09;9.63;;;2.00;;
24859;SDS011;12936;52.006;4.350;2023-05-18T10:02:38;11.23;;;2.40;;
24859;SDS011;12936;52.006;4.350;2023-05-18T10:05:17;7.70;;;2.50;;
24859;SDS011;12936;52.006;4.350;2023-05-18T10:07:46;9.60;;;2.47;;
24859;SDS011;12936;52.006;4.350;2023-05-18T10:10:17;7.57;;;2.40;;
24859;SDS011;12936;52.006;4.350;2023-05-18T10:12:46;8.20;;;2.20;;
24859;SDS011;12936;52.006;4.350;2023-05-18T10:15:17;6.67;;;2.17;;
24859;SDS011;12936;52.006;4.350;2023-05-18T10:17:47;9.03;;;2.30;;
24859;SDS011;12936;52.006;4.350;2023-05-18T10:20:17;9.30;;;2.33;;
24859;SDS011;12936;52.006;4.350;2023-05-18T10:22:46;11.53;;;2.30;;
24859;SDS011;12936;52.006;4.350;2023-05-18T10:25:17;7.67;;;1.97;;
24859;SDS011;12936;52.006;4.350;2023-05-18T10:27:46;5.47;;;2.00;;
24859;SDS011;12936;52.006;4.350;2023-05-18T10:30:15;8.27;;;2.10;;
24859;SDS011;12936;52.006;4.350;2023-05-18T10:32:44;9.40;;;2.87;;
24859;SDS011;12936;52.006;4.350;2023-05-18T10:35:12;6.27;;;2.17;;
24859;SDS011;12936;52.006;4.350;2023-05-18T10:37:42;8.13;;;2.47;;
24859;SDS011;12936;52.006;4.350;2023-05-18T10:40:13;10.40;;;2.07;;
24859;SDS011;12936;52.006;4.350;2023-05-18T10:42:44;7.17;;;1.77;;
24859;SDS011;12936;52.006;4.350;2023-05-18T10:45:14;14.10;;;2.43;;
24859;SDS011;12936;52.006;4.350;2023-05-18T10:47:42;8.17;;;1.93;;
24859;SDS011;12936;52.006;4.350;2023-05-18T10:50:11;6.83;;;2.00;;
24859;SDS011;12936;52.006;4.350;2023-05-18T10:52:41;4.47;;;1.80;;
24859;SDS011;12936;52.006;4.350;2023-05-18T10:55:11;6.23;;;2.20;;
24859;SDS011;12936;52.006;4.350;2023-05-18T10:57:41;7.43;;;2.13;;
24859;SDS011;12936;52.006;4.350;2023-05-18T11:00:14;7.40;;;2.33;;
24859;SDS011;12936;52.006;4.350;2023-05-18T11:02:42;9.27;;;2.30;;
24859;SDS011;12936;52.006;4.350;2023-05-18T11:05:11;9.30;;;2.43;;
24859;SDS011;12936;52.006;4.350;2023-05-18T11:07:40;6.70;;;2.33;;
24859;SDS011;12936;52.006;4.350;2023-05-18T11:10:11;6.20;;;2.10;;
24859;SDS011;12936;52.006;4.350;2023-05-18T11:12:41;10.70;;;2.50;;
24859;SDS011;12936;52.006;4.350;2023-05-18T11:15:09;10.00;;;2.50;;
24859;SDS011;12936;52.006;4.350;2023-05-18T11:17:39;7.90;;;2.60;;
24859;SDS011;12936;52.006;4.350;2023-05-18T11:20:13;7.93;;;2.40;;
24859;SDS011;12936;52.006;4.350;2023-05-18T11:22:44;7.10;;;2.13;;
24859;SDS011;12936;52.006;4.350;2023-05-18T11:28:09;13.80;;;2.73;;
24859;SDS011;12936;52.006;4.350;2023-05-18T11:33:29;6.07;;;2.30;;
24859;SDS011;12936;52.006;4.350;2023-05-18T11:35:59;9.10;;;2.63;;
24859;SDS011;12936;52.006;4.350;2023-05-18T11:38:45;5.80;;;2.33;;
24859;SDS011;12936;52.006;4.350;2023-05-18T11:41:30;10.27;;;3.00;;
24859;SDS011;12936;52.006;4.350;2023-05-18T11:44:03;9.00;;;3.00;;
24859;SDS011;12936;52.006;4.350;2023-05-18T11:46:35;9.65;;;2.58;;
24859;SDS011;12936;52.006;4.350;2023-05-18T11:49:05;8.73;;;3.07;;
24859;SDS011;12936;52.006;4.350;2023-05-18T11:51:42;8.77;;;3.27;;
24859;SDS011;12936;52.006;4.350;2023-05-18T11:54:24;9.57;;;2.80;;
24859;SDS011;12936;52.006;4.350;2023-05-18T11:56:52;9.87;;;3.00;;
24859;SDS011;12936;52.006;4.350;2023-05-18T11:59:29;10.53;;;2.90;;
24859;SDS011;12936;52.006;4.350;2023-05-18T12:01:59;11.00;;;3.43;;
24859;SDS011;12936;52.006;4.350;2023-05-18T12:04:30;6.77;;;3.10;;
24859;SDS011;12936;52.006;4.350;2023-05-18T12:07:03;9.57;;;2.57;;
24859;SDS011;12936;52.006;4.350;2023-05-18T12:09:34;7.53;;;2.60;;
24859;SDS011;12936;52.006;4.350;2023-05-18T12:12:02;7.60;;;2.55;;
24859;SDS011;12936;52.006;4.350;2023-05-18T12:14:33;7.53;;;2.57;;
24859;SDS011;12936;52.006;4.350;2023-05-18T12:17:02;9.93;;;2.80;;
24859;SDS011;12936;52.006;4.350;2023-05-18T12:19:37;8.87;;;2.80;;
24859;SDS011;12936;52.006;4.350;2023-05-18T12:22:08;10.57;;;2.80;;
24859;SDS011;12936;52.006;4.350;2023-05-18T12:24:38;9.13;;;2.50;;
24859;SDS011;12936;52.006;4.350;2023-05-18T12:27:08;12.90;;;2.75;;
24859;SDS011;12936;52.006;4.350;2023-05-18T12:29:38;8.50;;;2.92;;
24859;SDS011;12936;52.006;4.350;2023-05-18T12:32:08;10.52;;;2.78;;
24859;SDS011;12936;52.006;4.350;2023-05-18T12:34:38;9.45;;;2.83;;
24859;SDS011;12936;52.006;4.350;2023-05-18T12:37:07;7.35;;;3.00;;
24859;SDS011;12936;52.006;4.350;2023-05-18T12:39:35;10.77;;;2.85;;
24859;SDS011;12936;52.006;4.350;2023-05-18T12:42:07;11.93;;;3.00;;
24859;SDS011;12936;52.006;4.350;2023-05-18T12:44:36;11.30;;;3.40;;
24859;SDS011;12936;52.006;4.350;2023-05-18T12:47:04;9.10;;;3.10;;
24859;SDS011;12936;52.006;4.350;2023-05-18T12:49:35;11.55;;;3.13;;
24859;SDS011;12936;52.006;4.350;2023-05-18T12:52:09;9.45;;;3.45;;
24859;SDS011;12936;52.006;4.350;2023-05-18T12:54:47;6.90;;;2.88;;
24859;SDS011;12936;52.006;4.350;2023-05-18T12:57:20;8.88;;;3.03;;
24859;SDS011;12936;52.006;4.350;2023-05-18T12:59:52;10.68;;;3.20;;
24859;SDS011;12936;52.006;4.350;2023-05-18T13:02:31;9.80;;;2.85;;
24859;SDS011;12936;52.006;4.350;2023-05-18T13:05:00;9.80;;;3.05;;
24859;SDS011;12936;52.006;4.350;2023-05-18T13:07:31;8.13;;;2.85;;
24859;SDS011;12936;52.006;4.350;2023-05-18T13:10:05;8.15;;;3.08;;
24859;SDS011;12936;52.006;4.350;2023-05-18T13:12:37;8.82;;;3.10;;
24859;SDS011;12936;52.006;4.350;2023-05-18T13:15:07;12.50;;;3.00;;
24859;SDS011;12936;52.006;4.350;2023-05-18T13:17:47;8.05;;;2.72;;
24859;SDS011;12936;52.006;4.350;2023-05-18T13:20:21;7.65;;;2.33;;
24859;SDS011;12936;52.006;4.350;2023-05-18T13:22:51;9.65;;;2.70;;
24859;SDS011;12936;52.006;4.350;2023-05-18T13:25:21;6.22;;;2.60;;
24859;SDS011;12936;52.006;4.350;2023-05-18T13:27:50;9.63;;;2.80;;
24859;SDS011;12936;52.006;4.350;2023-05-18T13:30:20;12.57;;;2.80;;
24859;SDS011;12936;52.006;4.350;2023-05-18T13:32:48;10.23;;;2.83;;
24859;SDS011;12936;52.006;4.350;2023-05-18T13:35:17;7.68;;;2.65;;
24859;SDS011;12936;52.006;4.350;2023-05-18T13:37:46;8.85;;;2.72;;
24859;SDS011;12936;52.006;4.350;2023-05-18T13:40:18;8.93;;;2.40;;
24859;SDS011;12936;52.006;4.350;2023-05-18T13:42:48;8.93;;;2.50;;
24859;SDS011;12936;52.006;4.350;2023-05-18T13:45:16;7.18;;;2.60;;
24859;SDS011;12936;52.006;4.350;2023-05-18T13:47:46;7.75;;;2.30;;
24859;SDS011;12936;52.006;4.350;2023-05-18T13:50:16;6.22;;;2.25;;
24859;SDS011;12936;52.006;4.350;2023-05-18T13:52:44;9.88;;;2.60;;
24859;SDS011;12936;52.006;4.350;2023-05-18T13:55:13;5.63;;;2.00;;
24859;SDS011;12936;52.006;4.350;2023-05-18T13:57:43;6.75;;;2.20;;
24859;SDS011;12936;52.006;4.350;2023-05-18T14:00:12;6.18;;;2.50;;
24859;SDS011;12936;52.006;4.350;2023-05-18T14:02:42;6.20;;;2.42;;
24859;SDS011;12936;52.006;4.350;2023-05-18T14:05:11;6.07;;;2.13;;
24859;SDS011;12936;52.006;4.350;2023-05-18T14:07:40;7.35;;;2.17;;
24859;SDS011;12936;52.006;4.350;2023-05-18T14:10:09;4.72;;;2.08;;
24859;SDS011;12936;52.006;4.350;2023-05-18T14:12:38;8.10;;;2.42;;
24859;SDS011;12936;52.006;4.350;2023-05-18T14:15:10;11.48;;;2.78;;
24859;SDS011;12936;52.006;4.350;2023-05-18T14:17:40;7.97;;;2.58;;
24859;SDS011;12936;52.006;4.350;2023-05-18T14:20:09;6.78;;;2.42;;
24859;SDS011;12936;52.006;4.350;2023-05-18T14:22:38;11.38;;;2.78;;
24859;SDS011;12936;52.006;4.350;2023-05-18T14:25:06;6.45;;;2.78;;
24859;SDS011;12936;52.006;4.350;2023-05-18T14:27:35;5.82;;;2.33;;
24859;SDS011;12936;52.006;4.350;2023-05-18T14:30:03;6.43;;;2.88;;
24859;SDS011;12936;52.006;4.350;2023-05-18T14:32:34;7.15;;;2.30;;
24859;SDS011;12936;52.006;4.350;2023-05-18T14:35:02;6.72;;;2.72;;
24859;SDS011;12936;52.006;4.350;2023-05-18T14:37:31;4.25;;;2.10;;
24859;SDS011;12936;52.006;4.350;2023-05-18T14:39:59;6.78;;;2.30;;
24859;SDS011;12936;52.006;4.350;2023-05-18T14:42:28;7.85;;;2.45;;
24859;SDS011;12936;52.006;4.350;2023-05-18T14:44:56;6.53;;;2.28;;
24859;SDS011;12936;52.006;4.350;2023-05-18T14:47:24;10.07;;;2.90;;
24859;SDS011;12936;52.006;4.350;2023-05-18T14:49:53;7.75;;;2.60;;
24859;SDS011;12936;52.006;4.350;2023-05-18T14:52:21;8.80;;;2.78;;
24859;SDS011;12936;52.006;4.350;2023-05-18T14:54:49;6.07;;;2.67;;
24859;SDS011;12936;52.006;4.350;2023-05-18T14:57:18;9.80;;;3.10;;
24859;SDS011;12936;52.006;4.350;2023-05-18T14:59:46;18.88;;;3.00;;
24859;SDS011;12936;52.006;4.350;2023-05-18T15:02:14;7.82;;;3.17;;
24859;SDS011;12936;52.006;4.350;2023-05-18T15:04:42;6.25;;;2.70;;
24859;SDS011;12936;52.006;4.350;2023-05-18T15:07:12;6.60;;;2.92;;